Terminal Aerodrome Forecast
Issued by NWS

Home | Current Version | Previous Version | Text Only | Print | Product List | Glossary On
Versions: 1 2 3 4 5 6 7 8 9 10 11 12 13 14 15 16 17 18 19 20 21 22 23 24 25
000
FTUS43 KLSX 280000 AAA
TAFCPS
TAF AMD
KCPS 280038Z 2801/2824 18006KT P6SM VCTS BKN040CB OVC080
      TEMPO 2801/2802 5SM -TSRA OVC030CB
     FM280200 VRB03KT P6SM SCT100 BKN250
     FM280800 VRB03KT P6SM SCT100 BKN250
      TEMPO 2808/2812 3SM BR
     FM281700 14007KT P6SM SCT040 BKN250=

USA.gov is the U.S. government's official web portal to all federal, state and local government web resources and services.